sensor_id;sensor_type;location;lat;lon;timestamp;P1;durP1;ratioP1;P2;durP2;ratioP2
6209;SDS011;3138;52.550;13.148;2023-08-06T00:00:42;15.80;;;8.87;;
6209;SDS011;3138;52.550;13.148;2023-08-06T00:03:09;13.13;;;9.07;;
6209;SDS011;3138;52.550;13.148;2023-08-06T00:05:36;9.00;;;8.20;;
6209;SDS011;3138;52.550;13.148;2023-08-06T00:08:02;13.13;;;8.63;;
6209;SDS011;3138;52.550;13.148;2023-08-06T00:10:29;11.50;;;9.47;;
6209;SDS011;3138;52.550;13.148;2023-08-06T00:12:56;12.27;;;9.80;;
6209;SDS011;3138;52.550;13.148;2023-08-06T00:15:23;11.43;;;9.70;;
6209;SDS011;3138;52.550;13.148;2023-08-06T00:17:51;11.93;;;10.40;;
6209;SDS011;3138;52.550;13.148;2023-08-06T00:20:18;15.67;;;9.47;;
6209;SDS011;3138;52.550;13.148;2023-08-06T00:22:45;21.33;;;11.07;;
6209;SDS011;3138;52.550;13.148;2023-08-06T00:25:12;12.33;;;9.63;;
6209;SDS011;3138;52.550;13.148;2023-08-06T00:27:39;17.30;;;11.03;;
6209;SDS011;3138;52.550;13.148;2023-08-06T00:30:08;14.73;;;8.70;;
6209;SDS011;3138;52.550;13.148;2023-08-06T00:32:35;12.70;;;10.30;;
6209;SDS011;3138;52.550;13.148;2023-08-06T00:35:04;14.20;;;9.10;;
6209;SDS011;3138;52.550;13.148;2023-08-06T00:37:31;18.03;;;9.93;;
6209;SDS011;3138;52.550;13.148;2023-08-06T00:39:58;12.77;;;9.47;;
6209;SDS011;3138;52.550;13.148;2023-08-06T00:42:24;15.87;;;10.47;;
6209;SDS011;3138;52.550;13.148;2023-08-06T00:44:51;10.67;;;9.30;;
6209;SDS011;3138;52.550;13.148;2023-08-06T00:47:18;11.70;;;8.90;;
6209;SDS011;3138;52.550;13.148;2023-08-06T00:49:45;9.13;;;7.93;;
6209;SDS011;3138;52.550;13.148;2023-08-06T00:52:14;13.13;;;9.43;;
6209;SDS011;3138;52.550;13.148;2023-08-06T00:54:41;14.10;;;8.83;;
6209;SDS011;3138;52.550;13.148;2023-08-06T00:57:08;11.33;;;8.40;;
6209;SDS011;3138;52.550;13.148;2023-08-06T00:59:36;11.67;;;9.83;;
6209;SDS011;3138;52.550;13.148;2023-08-06T01:02:06;15.53;;;9.77;;
6209;SDS011;3138;52.550;13.148;2023-08-06T01:04:33;11.17;;;10.00;;
6209;SDS011;3138;52.550;13.148;2023-08-06T01:07:02;14.47;;;8.67;;
6209;SDS011;3138;52.550;13.148;2023-08-06T01:09:43;12.00;;;9.63;;
6209;SDS011;3138;52.550;13.148;2023-08-06T01:12:18;25.03;;;9.97;;
6209;SDS011;3138;52.550;13.148;2023-08-06T01:14:52;11.70;;;10.50;;
6209;SDS011;3138;52.550;13.148;2023-08-06T01:17:38;13.43;;;9.20;;
6209;SDS011;3138;52.550;13.148;2023-08-06T01:20:06;15.33;;;9.53;;
6209;SDS011;3138;52.550;13.148;2023-08-06T01:22:35;13.33;;;10.93;;
6209;SDS011;3138;52.550;13.148;2023-08-06T01:25:02;15.20;;;10.53;;
6209;SDS011;3138;52.550;13.148;2023-08-06T01:27:30;12.90;;;10.17;;
6209;SDS011;3138;52.550;13.148;2023-08-06T01:30:06;14.83;;;10.17;;
6209;SDS011;3138;52.550;13.148;2023-08-06T01:32:39;20.80;;;10.00;;
6209;SDS011;3138;52.550;13.148;2023-08-06T01:35:09;11.03;;;9.70;;
6209;SDS011;3138;52.550;13.148;2023-08-06T01:37:38;12.47;;;9.33;;
6209;SDS011;3138;52.550;13.148;2023-08-06T01:40:07;11.73;;;9.83;;
6209;SDS011;3138;52.550;13.148;2023-08-06T01:42:37;14.73;;;10.10;;
6209;SDS011;3138;52.550;13.148;2023-08-06T01:45:04;10.17;;;9.27;;
6209;SDS011;3138;52.550;13.148;2023-08-06T01:47:32;17.60;;;11.33;;
6209;SDS011;3138;52.550;13.148;2023-08-06T01:49:58;12.83;;;10.20;;
6209;SDS011;3138;52.550;13.148;2023-08-06T01:52:25;11.67;;;10.13;;
6209;SDS011;3138;52.550;13.148;2023-08-06T01:54:54;11.47;;;10.33;;
6209;SDS011;3138;52.550;13.148;2023-08-06T01:57:22;12.63;;;11.10;;
6209;SDS011;3138;52.550;13.148;2023-08-06T01:59:49;11.40;;;10.30;;
6209;SDS011;3138;52.550;13.148;2023-08-06T02:02:16;13.43;;;11.27;;
6209;SDS011;3138;52.550;13.148;2023-08-06T02:04:43;14.30;;;10.57;;
6209;SDS011;3138;52.550;13.148;2023-08-06T02:07:09;17.47;;;11.20;;
6209;SDS011;3138;52.550;13.148;2023-08-06T02:09:36;16.20;;;10.57;;
6209;SDS011;3138;52.550;13.148;2023-08-06T02:12:05;14.70;;;9.93;;
6209;SDS011;3138;52.550;13.148;2023-08-06T02:14:33;13.43;;;10.00;;
6209;SDS011;3138;52.550;13.148;2023-08-06T02:17:00;12.37;;;11.07;;
6209;SDS011;3138;52.550;13.148;2023-08-06T02:19:27;11.67;;;10.47;;
6209;SDS011;3138;52.550;13.148;2023-08-06T02:21:53;18.80;;;11.60;;
6209;SDS011;3138;52.550;13.148;2023-08-06T02:24:20;17.33;;;11.63;;
6209;SDS011;3138;52.550;13.148;2023-08-06T02:26:47;14.30;;;10.63;;
6209;SDS011;3138;52.550;13.148;2023-08-06T02:29:17;11.83;;;10.70;;
6209;SDS011;3138;52.550;13.148;2023-08-06T02:31:44;17.77;;;12.47;;
6209;SDS011;3138;52.550;13.148;2023-08-06T02:34:11;13.33;;;10.13;;
6209;SDS011;3138;52.550;13.148;2023-08-06T02:36:38;16.27;;;11.97;;
6209;SDS011;3138;52.550;13.148;2023-08-06T02:39:04;16.90;;;10.60;;
6209;SDS011;3138;52.550;13.148;2023-08-06T02:41:31;18.97;;;12.20;;
6209;SDS011;3138;52.550;13.148;2023-08-06T02:43:58;20.47;;;11.40;;
6209;SDS011;3138;52.550;13.148;2023-08-06T02:46:26;14.13;;;11.80;;
6209;SDS011;3138;52.550;13.148;2023-08-06T02:48:53;15.23;;;11.20;;
6209;SDS011;3138;52.550;13.148;2023-08-06T02:51:20;12.90;;;11.57;;
6209;SDS011;3138;52.550;13.148;2023-08-06T02:53:47;11.37;;;10.30;;
6209;SDS011;3138;52.550;13.148;2023-08-06T02:56:14;12.00;;;10.50;;
6209;SDS011;3138;52.550;13.148;2023-08-06T02:58:41;11.60;;;10.50;;
6209;SDS011;3138;52.550;13.148;2023-08-06T03:01:08;12.50;;;11.20;;
6209;SDS011;3138;52.550;13.148;2023-08-06T03:03:36;16.37;;;12.00;;
6209;SDS011;3138;52.550;13.148;2023-08-06T03:06:03;12.63;;;10.90;;
6209;SDS011;3138;52.550;13.148;2023-08-06T03:08:30;11.50;;;10.40;;
6209;SDS011;3138;52.550;13.148;2023-08-06T03:10:57;11.40;;;10.30;;
6209;SDS011;3138;52.550;13.148;2023-08-06T03:13:24;10.17;;;9.20;;
6209;SDS011;3138;52.550;13.148;2023-08-06T03:15:54;14.43;;;11.23;;
6209;SDS011;3138;52.550;13.148;2023-08-06T03:18:21;14.27;;;10.20;;
6209;SDS011;3138;52.550;13.148;2023-08-06T03:20:50;10.63;;;9.53;;
6209;SDS011;3138;52.550;13.148;2023-08-06T03:23:17;15.30;;;10.03;;
6209;SDS011;3138;52.550;13.148;2023-08-06T03:25:44;13.57;;;10.93;;
6209;SDS011;3138;52.550;13.148;2023-08-06T03:28:11;12.80;;;10.17;;
6209;SDS011;3138;52.550;13.148;2023-08-06T03:30:38;12.30;;;10.50;;
6209;SDS011;3138;52.550;13.148;2023-08-06T03:33:05;12.10;;;10.17;;
6209;SDS011;3138;52.550;13.148;2023-08-06T03:35:31;11.70;;;10.50;;
6209;SDS011;3138;52.550;13.148;2023-08-06T03:38:00;12.67;;;10.63;;
6209;SDS011;3138;52.550;13.148;2023-08-06T03:40:26;14.90;;;10.30;;
6209;SDS011;3138;52.550;13.148;2023-08-06T03:42:53;13.37;;;11.83;;
6209;SDS011;3138;52.550;13.148;2023-08-06T03:45:20;19.67;;;10.63;;
6209;SDS011;3138;52.550;13.148;2023-08-06T03:47:47;16.17;;;11.03;;
6209;SDS011;3138;52.550;13.148;2023-08-06T03:50:14;13.20;;;11.77;;
6209;SDS011;3138;52.550;13.148;2023-08-06T03:52:41;14.70;;;12.20;;
6209;SDS011;3138;52.550;13.148;2023-08-06T03:55:09;17.63;;;12.40;;
6209;SDS011;3138;52.550;13.148;2023-08-06T03:57:36;16.63;;;12.33;;
6209;SDS011;3138;52.550;13.148;2023-08-06T04:00:03;18.13;;;12.73;;
6209;SDS011;3138;52.550;13.148;2023-08-06T04:02:30;14.80;;;10.80;;
6209;SDS011;3138;52.550;13.148;2023-08-06T04:04:57;12.90;;;11.60;;
6209;SDS011;3138;52.550;13.148;2023-08-06T04:07:24;11.60;;;10.47;;
6209;SDS011;3138;52.550;13.148;2023-08-06T04:09:54;16.20;;;13.23;;
6209;SDS011;3138;52.550;13.148;2023-08-06T04:12:25;13.63;;;12.27;;
6209;SDS011;3138;52.550;13.148;2023-08-06T04:14:52;16.73;;;12.60;;
6209;SDS011;3138;52.550;13.148;2023-08-06T04:17:20;21.03;;;12.67;;
6209;SDS011;3138;52.550;13.148;2023-08-06T04:19:48;16.37;;;12.37;;
6209;SDS011;3138;52.550;13.148;2023-08-06T04:22:16;17.70;;;12.30;;
6209;SDS011;3138;52.550;13.148;2023-08-06T04:24:43;14.70;;;13.00;;
6209;SDS011;3138;52.550;13.148;2023-08-06T04:27:10;14.03;;;12.20;;
6209;SDS011;3138;52.550;13.148;2023-08-06T04:29:40;19.00;;;13.33;;
6209;SDS011;3138;52.550;13.148;2023-08-06T04:32:07;16.20;;;11.87;;
6209;SDS011;3138;52.550;13.148;2023-08-06T04:34:35;13.90;;;11.90;;
6209;SDS011;3138;52.550;13.148;2023-08-06T04:37:03;16.70;;;13.00;;
6209;SDS011;3138;52.550;13.148;2023-08-06T04:39:30;16.43;;;12.80;;
6209;SDS011;3138;52.550;13.148;2023-08-06T04:41:57;14.40;;;12.80;;
6209;SDS011;3138;52.550;13.148;2023-08-06T04:44:26;14.10;;;12.70;;
6209;SDS011;3138;52.550;13.148;2023-08-06T04:46:54;14.93;;;13.43;;
6209;SDS011;3138;52.550;13.148;2023-08-06T04:49:21;13.60;;;12.17;;
6209;SDS011;3138;52.550;13.148;2023-08-06T04:51:48;13.90;;;12.40;;
6209;SDS011;3138;52.550;13.148;2023-08-06T04:54:14;15.70;;;13.30;;
6209;SDS011;3138;52.550;13.148;2023-08-06T04:56:41;14.87;;;13.17;;
6209;SDS011;3138;52.550;13.148;2023-08-06T04:59:10;17.20;;;13.37;;
6209;SDS011;3138;52.550;13.148;2023-08-06T05:01:37;13.97;;;12.57;;
6209;SDS011;3138;52.550;13.148;2023-08-06T05:04:05;15.40;;;13.20;;
6209;SDS011;3138;52.550;13.148;2023-08-06T05:06:32;14.90;;;13.40;;
6209;SDS011;3138;52.550;13.148;2023-08-06T05:08:58;16.60;;;14.30;;
6209;SDS011;3138;52.550;13.148;2023-08-06T05:11:25;15.60;;;14.00;;
6209;SDS011;3138;52.550;13.148;2023-08-06T05:13:52;19.97;;;15.57;;
6209;SDS011;3138;52.550;13.148;2023-08-06T05:16:19;16.13;;;14.47;;
6209;SDS011;3138;52.550;13.148;2023-08-06T05:18:46;17.57;;;15.40;;
6209;SDS011;3138;52.550;13.148;2023-08-06T05:21:14;16.13;;;14.43;;
6209;SDS011;3138;52.550;13.148;2023-08-06T05:23:41;15.10;;;13.70;;
6209;SDS011;3138;52.550;13.148;2023-08-06T05:26:08;14.63;;;13.10;;
6209;SDS011;3138;52.550;13.148;2023-08-06T05:28:35;19.00;;;14.93;;
6209;SDS011;3138;52.550;13.148;2023-08-06T05:31:05;15.20;;;13.57;;
6209;SDS011;3138;52.550;13.148;2023-08-06T05:33:32;15.97;;;13.73;;
6209;SDS011;3138;52.550;13.148;2023-08-06T05:35:58;14.33;;;12.53;;
6209;SDS011;3138;52.550;13.148;2023-08-06T05:38:27;13.70;;;12.40;;
6209;SDS011;3138;52.550;13.148;2023-08-06T05:40:53;18.07;;;12.87;;
6209;SDS011;3138;52.550;13.148;2023-08-06T05:43:21;14.27;;;12.87;;
6209;SDS011;3138;52.550;13.148;2023-08-06T05:45:49;15.27;;;13.17;;
6209;SDS011;3138;52.550;13.148;2023-08-06T05:48:16;14.07;;;12.70;;
6209;SDS011;3138;52.550;13.148;2023-08-06T05:50:43;16.60;;;13.73;;
6209;SDS011;3138;52.550;13.148;2023-08-06T05:53:10;16.43;;;13.57;;
6209;SDS011;3138;52.550;13.148;2023-08-06T05:55:38;15.63;;;12.87;;
6209;SDS011;3138;52.550;13.148;2023-08-06T05:58:05;17.90;;;14.47;;
6209;SDS011;3138;52.550;13.148;2023-08-06T06:00:32;15.00;;;13.27;;
6209;SDS011;3138;52.550;13.148;2023-08-06T06:03:00;20.20;;;12.57;;
6209;SDS011;3138;52.550;13.148;2023-08-06T06:05:26;18.80;;;11.73;;
6209;SDS011;3138;52.550;13.148;2023-08-06T06:07:53;12.57;;;11.27;;
6209;SDS011;3138;52.550;13.148;2023-08-06T06:10:20;14.17;;;12.73;;
6209;SDS011;3138;52.550;13.148;2023-08-06T06:12:48;15.53;;;12.93;;
6209;SDS011;3138;52.550;13.148;2023-08-06T06:15:15;12.47;;;11.20;;
6209;SDS011;3138;52.550;13.148;2023-08-06T06:17:42;12.10;;;10.93;;
6209;SDS011;3138;52.550;13.148;2023-08-06T06:20:09;11.90;;;10.80;;
6209;SDS011;3138;52.550;13.148;2023-08-06T06:22:36;15.40;;;11.10;;
6209;SDS011;3138;52.550;13.148;2023-08-06T06:25:03;11.93;;;10.47;;
6209;SDS011;3138;52.550;13.148;2023-08-06T06:27:31;12.20;;;11.00;;
6209;SDS011;3138;52.550;13.148;2023-08-06T06:29:59;11.87;;;10.77;;
6209;SDS011;3138;52.550;13.148;2023-08-06T06:32:26;14.57;;;11.73;;
6209;SDS011;3138;52.550;13.148;2023-08-06T06:34:52;11.60;;;10.53;;
6209;SDS011;3138;52.550;13.148;2023-08-06T06:37:19;12.00;;;10.83;;
6209;SDS011;3138;52.550;13.148;2023-08-06T06:39:46;11.70;;;10.50;;
6209;SDS011;3138;52.550;13.148;2023-08-06T06:42:13;13.23;;;11.17;;
6209;SDS011;3138;52.550;13.148;2023-08-06T06:44:40;12.37;;;11.10;;
6209;SDS011;3138;52.550;13.148;2023-08-06T06:47:08;16.73;;;10.47;;
6209;SDS011;3138;52.550;13.148;2023-08-06T06:49:35;13.40;;;9.40;;
6209;SDS011;3138;52.550;13.148;2023-08-06T06:52:02;9.23;;;8.33;;
6209;SDS011;3138;52.550;13.148;2023-08-06T06:54:29;9.40;;;8.50;;
6209;SDS011;3138;52.550;13.148;2023-08-06T06:56:56;9.53;;;7.90;;
6209;SDS011;3138;52.550;13.148;2023-08-06T06:59:23;9.43;;;8.60;;
6209;SDS011;3138;52.550;13.148;2023-08-06T07:01:50;9.10;;;8.20;;
6209;SDS011;3138;52.550;13.148;2023-08-06T07:04:18;9.77;;;8.80;;
6209;SDS011;3138;52.550;13.148;2023-08-06T07:06:44;7.87;;;7.20;;
6209;SDS011;3138;52.550;13.148;2023-08-06T07:09:11;11.17;;;8.70;;
6209;SDS011;3138;52.550;13.148;2023-08-06T07:11:38;8.87;;;7.47;;
6209;SDS011;3138;52.550;13.148;2023-08-06T07:14:07;10.03;;;8.17;;
6209;SDS011;3138;52.550;13.148;2023-08-06T07:16:34;8.60;;;7.80;;
6209;SDS011;3138;52.550;13.148;2023-08-06T07:19:01;8.93;;;8.03;;
6209;SDS011;3138;52.550;13.148;2023-08-06T07:21:29;10.80;;;7.23;;
6209;SDS011;3138;52.550;13.148;2023-08-06T07:23:56;8.57;;;6.37;;
6209;SDS011;3138;52.550;13.148;2023-08-06T07:26:24;9.33;;;8.47;;
6209;SDS011;3138;52.550;13.148;2023-08-06T07:28:51;8.87;;;8.07;;
6209;SDS011;3138;52.550;13.148;2023-08-06T07:31:18;13.13;;;8.53;;
6209;SDS011;3138;52.550;13.148;2023-08-06T07:33:45;10.00;;;7.33;;
6209;SDS011;3138;52.550;13.148;2023-08-06T07:36:12;11.30;;;9.10;;
6209;SDS011;3138;52.550;13.148;2023-08-06T07:38:41;8.03;;;7.33;;
6209;SDS011;3138;52.550;13.148;2023-08-06T07:41:08;9.13;;;7.70;;
6209;SDS011;3138;52.550;13.148;2023-08-06T07:43:35;9.20;;;8.30;;
6209;SDS011;3138;52.550;13.148;2023-08-06T07:46:02;9.67;;;7.50;;
6209;SDS011;3138;52.550;13.148;2023-08-06T07:48:30;9.07;;;8.17;;
6209;SDS011;3138;52.550;13.148;2023-08-06T07:50:57;8.17;;;7.37;;
6209;SDS011;3138;52.550;13.148;2023-08-06T07:53:24;8.90;;;8.20;;
6209;SDS011;3138;52.550;13.148;2023-08-06T07:55:55;10.63;;;8.37;;
6209;SDS011;3138;52.550;13.148;2023-08-06T07:58:23;9.80;;;7.70;;
6209;SDS011;3138;52.550;13.148;2023-08-06T08:00:51;10.07;;;9.17;;
6209;SDS011;3138;52.550;13.148;2023-08-06T08:03:18;9.00;;;8.10;;
6209;SDS011;3138;52.550;13.148;2023-08-06T08:05:45;10.43;;;9.43;;
6209;SDS011;3138;52.550;13.148;2023-08-06T08:08:12;9.83;;;8.87;;
6209;SDS011;3138;52.550;13.148;2023-08-06T08:10:39;9.40;;;8.50;;
6209;SDS011;3138;52.550;13.148;2023-08-06T08:13:07;9.33;;;8.43;;
6209;SDS011;3138;52.550;13.148;2023-08-06T08:15:35;8.17;;;7.47;;
6209;SDS011;3138;52.550;13.148;2023-08-06T08:18:02;9.90;;;8.83;;
6209;SDS011;3138;52.550;13.148;2023-08-06T08:20:29;9.70;;;8.80;;
6209;SDS011;3138;52.550;13.148;2023-08-06T08:22:57;9.83;;;8.83;;
6209;SDS011;3138;52.550;13.148;2023-08-06T08:25:25;9.70;;;8.70;;
6209;SDS011;3138;52.550;13.148;2023-08-06T08:27:52;8.70;;;7.80;;
6209;SDS011;3138;52.550;13.148;2023-08-06T08:30:21;10.27;;;9.30;;
6209;SDS011;3138;52.550;13.148;2023-08-06T08:32:49;9.60;;;8.70;;
6209;SDS011;3138;52.550;13.148;2023-08-06T08:35:16;12.00;;;9.57;;
6209;SDS011;3138;52.550;13.148;2023-08-06T08:37:43;11.10;;;9.23;;
6209;SDS011;3138;52.550;13.148;2023-08-06T08:40:10;10.50;;;9.53;;
6209;SDS011;3138;52.550;13.148;2023-08-06T08:42:37;11.33;;;8.93;;
6209;SDS011;3138;52.550;13.148;2023-08-06T08:45:04;12.67;;;8.20;;
6209;SDS011;3138;52.550;13.148;2023-08-06T08:47:39;11.00;;;9.00;;
6209;SDS011;3138;52.550;13.148;2023-08-06T08:50:07;19.00;;;9.60;;
6209;SDS011;3138;52.550;13.148;2023-08-06T08:52:35;9.50;;;8.70;;
6209;SDS011;3138;52.550;13.148;2023-08-06T08:55:04;9.80;;;8.90;;
6209;SDS011;3138;52.550;13.148;2023-08-06T08:57:32;17.40;;;8.27;;
6209;SDS011;3138;52.550;13.148;2023-08-06T08:59:59;15.27;;;9.03;;
6209;SDS011;3138;52.550;13.148;2023-08-06T09:02:28;11.07;;;10.07;;
6209;SDS011;3138;52.550;13.148;2023-08-06T09:04:58;9.17;;;8.37;;
6209;SDS011;3138;52.550;13.148;2023-08-06T09:07:27;13.23;;;7.63;;
6209;SDS011;3138;52.550;13.148;2023-08-06T09:09:59;9.97;;;8.40;;
6209;SDS011;3138;52.550;13.148;2023-08-06T09:12:30;9.70;;;8.80;;
6209;SDS011;3138;52.550;13.148;2023-08-06T09:14:56;12.33;;;8.20;;
6209;SDS011;3138;52.550;13.148;2023-08-06T09:17:23;9.77;;;8.60;;
6209;SDS011;3138;52.550;13.148;2023-08-06T09:19:50;10.03;;;9.13;;
6209;SDS011;3138;52.550;13.148;2023-08-06T09:22:18;10.90;;;9.80;;
6209;SDS011;3138;52.550;13.148;2023-08-06T09:24:45;9.57;;;8.40;;
6209;SDS011;3138;52.550;13.148;2023-08-06T09:27:12;9.57;;;8.77;;
6209;SDS011;3138;52.550;13.148;2023-08-06T09:29:41;9.90;;;8.90;;
6209;SDS011;3138;52.550;13.148;2023-08-06T09:32:08;12.80;;;8.67;;
6209;SDS011;3138;52.550;13.148;2023-08-06T09:34:35;9.60;;;8.80;;
6209;SDS011;3138;52.550;13.148;2023-08-06T09:37:06;10.87;;;9.77;;
6209;SDS011;3138;52.550;13.148;2023-08-06T09:39:38;12.43;;;9.77;;
6209;SDS011;3138;52.550;13.148;2023-08-06T09:42:05;10.53;;;9.63;;
6209;SDS011;3138;52.550;13.148;2023-08-06T09:44:32;11.53;;;9.93;;
6209;SDS011;3138;52.550;13.148;2023-08-06T09:47:00;10.67;;;9.07;;
6209;SDS011;3138;52.550;13.148;2023-08-06T09:49:28;10.73;;;9.03;;
6209;SDS011;3138;52.550;13.148;2023-08-06T09:52:06;12.60;;;9.40;;
6209;SDS011;3138;52.550;13.148;2023-08-06T09:54:38;10.40;;;9.50;;
6209;SDS011;3138;52.550;13.148;2023-08-06T09:57:05;11.23;;;9.87;;
6209;SDS011;3138;52.550;13.148;2023-08-06T09:59:32;11.10;;;10.00;;
6209;SDS011;3138;52.550;13.148;2023-08-06T10:02:00;9.63;;;8.60;;
6209;SDS011;3138;52.550;13.148;2023-08-06T10:04:28;10.77;;;9.70;;
6209;SDS011;3138;52.550;13.148;2023-08-06T10:06:56;10.53;;;9.37;;
6209;SDS011;3138;52.550;13.148;2023-08-06T10:09:24;11.10;;;9.87;;
6209;SDS011;3138;52.550;13.148;2023-08-06T10:11:52;12.00;;;10.57;;
6209;SDS011;3138;52.550;13.148;2023-08-06T10:14:21;10.73;;;9.73;;
6209;SDS011;3138;52.550;13.148;2023-08-06T10:16:52;12.97;;;10.80;;
6209;SDS011;3138;52.550;13.148;2023-08-06T10:19:19;12.50;;;9.60;;
6209;SDS011;3138;52.550;13.148;2023-08-06T10:24:45;13.53;;;10.20;;
6209;SDS011;3138;52.550;13.148;2023-08-06T10:27:14;10.93;;;9.83;;
6209;SDS011;3138;52.550;13.148;2023-08-06T10:29:46;12.83;;;11.53;;
6209;SDS011;3138;52.550;13.148;2023-08-06T10:32:13;11.53;;;10.53;;
6209;SDS011;3138;52.550;13.148;2023-08-06T10:34:52;11.67;;;10.50;;
6209;SDS011;3138;52.550;13.148;2023-08-06T10:37:20;17.20;;;10.20;;
6209;SDS011;3138;52.550;13.148;2023-08-06T10:39:48;12.13;;;10.60;;
6209;SDS011;3138;52.550;13.148;2023-08-06T10:42:21;12.20;;;11.03;;
6209;SDS011;3138;52.550;13.148;2023-08-06T10:47:43;11.70;;;10.53;;
6209;SDS011;3138;52.550;13.148;2023-08-06T10:50:11;16.17;;;10.17;;
6209;SDS011;3138;52.550;13.148;2023-08-06T10:52:41;12.70;;;10.53;;
6209;SDS011;3138;52.550;13.148;2023-08-06T10:55:08;10.70;;;9.80;;
6209;SDS011;3138;52.550;13.148;2023-08-06T10:57:36;12.57;;;11.30;;
6209;SDS011;3138;52.550;13.148;2023-08-06T11:00:04;12.50;;;11.20;;
6209;SDS011;3138;52.550;13.148;2023-08-06T11:02:33;15.10;;;12.90;;
6209;SDS011;3138;52.550;13.148;2023-08-06T11:05:10;11.50;;;10.40;;
6209;SDS011;3138;52.550;13.148;2023-08-06T11:07:37;15.70;;;12.20;;
6209;SDS011;3138;52.550;13.148;2023-08-06T11:10:05;26.03;;;10.47;;
6209;SDS011;3138;52.550;13.148;2023-08-06T11:12:33;11.57;;;10.47;;
6209;SDS011;3138;52.550;13.148;2023-08-06T11:15:02;11.53;;;10.20;;
6209;SDS011;3138;52.550;13.148;2023-08-06T11:17:31;11.33;;;10.20;;
6209;SDS011;3138;52.550;13.148;2023-08-06T11:19:59;12.73;;;9.60;;
6209;SDS011;3138;52.550;13.148;2023-08-06T11:22:27;11.23;;;10.17;;
6209;SDS011;3138;52.550;13.148;2023-08-06T11:24:54;13.60;;;10.67;;
6209;SDS011;3138;52.550;13.148;2023-08-06T11:27:21;14.10;;;10.93;;
6209;SDS011;3138;52.550;13.148;2023-08-06T11:29:48;11.60;;;10.57;;
6209;SDS011;3138;52.550;13.148;2023-08-06T11:32:16;14.07;;;11.37;;
6209;SDS011;3138;52.550;13.148;2023-08-06T11:34:43;18.13;;;11.43;;
6209;SDS011;3138;52.550;13.148;2023-08-06T11:37:10;11.50;;;10.50;;
6209;SDS011;3138;52.550;13.148;2023-08-06T11:39:38;16.10;;;11.70;;
6209;SDS011;3138;52.550;13.148;2023-08-06T11:42:10;16.47;;;11.47;;
6209;SDS011;3138;52.550;13.148;2023-08-06T11:44:38;13.03;;;11.70;;
6209;SDS011;3138;52.550;13.148;2023-08-06T11:47:11;13.33;;;11.93;;
6209;SDS011;3138;52.550;13.148;2023-08-06T11:49:41;12.50;;;11.03;;
6209;SDS011;3138;52.550;13.148;2023-08-06T11:52:16;14.30;;;11.70;;
6209;SDS011;3138;52.550;13.148;2023-08-06T11:54:45;14.07;;;11.87;;
6209;SDS011;3138;52.550;13.148;2023-08-06T11:57:13;14.50;;;10.77;;
6209;SDS011;3138;52.550;13.148;2023-08-06T11:59:41;13.33;;;11.70;;
6209;SDS011;3138;52.550;13.148;2023-08-06T12:02:09;19.73;;;11.90;;
6209;SDS011;3138;52.550;13.148;2023-08-06T12:07:30;13.40;;;12.20;;
6209;SDS011;3138;52.550;13.148;2023-08-06T12:09:58;21.33;;;12.47;;
6209;SDS011;3138;52.550;13.148;2023-08-06T12:12:25;12.83;;;11.47;;
6209;SDS011;3138;52.550;13.148;2023-08-06T12:14:53;12.83;;;11.53;;
6209;SDS011;3138;52.550;13.148;2023-08-06T12:17:21;14.00;;;12.50;;
6209;SDS011;3138;52.550;13.148;2023-08-06T12:19:48;14.00;;;12.60;;
6209;SDS011;3138;52.550;13.148;2023-08-06T12:22:16;15.70;;;11.43;;
6209;SDS011;3138;52.550;13.148;2023-08-06T12:24:45;12.90;;;11.60;;
6209;SDS011;3138;52.550;13.148;2023-08-06T12:27:13;14.13;;;12.60;;
6209;SDS011;3138;52.550;13.148;2023-08-06T12:29:40;14.87;;;13.27;;
6209;SDS011;3138;52.550;13.148;2023-08-06T12:32:08;22.43;;;15.27;;
6209;SDS011;3138;52.550;13.148;2023-08-06T12:34:35;8.60;;;7.67;;
6209;SDS011;3138;52.550;13.148;2023-08-06T12:37:03;7.07;;;6.27;;
6209;SDS011;3138;52.550;13.148;2023-08-06T12:39:31;9.67;;;5.70;;
6209;SDS011;3138;52.550;13.148;2023-08-06T12:41:59;13.60;;;6.03;;
6209;SDS011;3138;52.550;13.148;2023-08-06T12:44:26;6.50;;;6.03;;
6209;SDS011;3138;52.550;13.148;2023-08-06T12:46:52;6.33;;;5.70;;
6209;SDS011;3138;52.550;13.148;2023-08-06T12:49:20;8.90;;;7.17;;
6209;SDS011;3138;52.550;13.148;2023-08-06T12:51:47;11.90;;;7.40;;
6209;SDS011;3138;52.550;13.148;2023-08-06T12:54:15;10.77;;;7.70;;
6209;SDS011;3138;52.550;13.148;2023-08-06T12:56:44;8.83;;;7.97;;
6209;SDS011;3138;52.550;13.148;2023-08-06T12:59:11;15.80;;;9.63;;
6209;SDS011;3138;52.550;13.148;2023-08-06T13:01:40;9.63;;;8.63;;
6209;SDS011;3138;52.550;13.148;2023-08-06T13:04:07;15.13;;;8.70;;
6209;SDS011;3138;52.550;13.148;2023-08-06T13:06:34;11.40;;;9.23;;
6209;SDS011;3138;52.550;13.148;2023-08-06T13:09:02;9.93;;;8.90;;
6209;SDS011;3138;52.550;13.148;2023-08-06T13:11:29;12.57;;;9.70;;
6209;SDS011;3138;52.550;13.148;2023-08-06T13:13:59;10.90;;;9.80;;
6209;SDS011;3138;52.550;13.148;2023-08-06T13:16:30;14.80;;;9.53;;
6209;SDS011;3138;52.550;13.148;2023-08-06T13:18:57;11.83;;;9.70;;
6209;SDS011;3138;52.550;13.148;2023-08-06T13:21:24;11.40;;;10.30;;
6209;SDS011;3138;52.550;13.148;2023-08-06T13:23:57;20.17;;;11.00;;
6209;SDS011;3138;52.550;13.148;2023-08-06T13:26:24;24.63;;;10.90;;
6209;SDS011;3138;52.550;13.148;2023-08-06T13:28:51;11.93;;;10.73;;
6209;SDS011;3138;52.550;13.148;2023-08-06T13:31:19;12.97;;;11.50;;
6209;SDS011;3138;52.550;13.148;2023-08-06T13:33:46;15.07;;;13.57;;
6209;SDS011;3138;52.550;13.148;2023-08-06T13:36:14;18.37;;;12.17;;
6209;SDS011;3138;52.550;13.148;2023-08-06T13:38:41;16.50;;;13.53;;
6209;SDS011;3138;52.550;13.148;2023-08-06T13:41:08;16.40;;;14.00;;
6209;SDS011;3138;52.550;13.148;2023-08-06T13:43:35;15.50;;;12.40;;
6209;SDS011;3138;52.550;13.148;2023-08-06T13:46:02;15.93;;;13.37;;
6209;SDS011;3138;52.550;13.148;2023-08-06T13:48:30;16.57;;;10.77;;
6209;SDS011;3138;52.550;13.148;2023-08-06T13:50:57;11.57;;;8.60;;
6209;SDS011;3138;52.550;13.148;2023-08-06T13:53:24;11.43;;;9.00;;
6209;SDS011;3138;52.550;13.148;2023-08-06T13:55:54;8.17;;;6.80;;
6209;SDS011;3138;52.550;13.148;2023-08-06T13:58:21;9.70;;;7.47;;
6209;SDS011;3138;52.550;13.148;2023-08-06T14:00:48;7.23;;;6.60;;
6209;SDS011;3138;52.550;13.148;2023-08-06T14:03:17;10.57;;;7.27;;
6209;SDS011;3138;52.550;13.148;2023-08-06T14:05:46;8.07;;;7.23;;
6209;SDS011;3138;52.550;13.148;2023-08-06T14:08:13;9.50;;;8.60;;
6209;SDS011;3138;52.550;13.148;2023-08-06T14:10:40;8.20;;;7.43;;
6209;SDS011;3138;52.550;13.148;2023-08-06T14:13:07;11.80;;;9.27;;
6209;SDS011;3138;52.550;13.148;2023-08-06T14:15:34;14.57;;;9.23;;
6209;SDS011;3138;52.550;13.148;2023-08-06T14:18:00;13.57;;;9.80;;
6209;SDS011;3138;52.550;13.148;2023-08-06T14:20:27;12.93;;;8.33;;
6209;SDS011;3138;52.550;13.148;2023-08-06T14:22:57;15.00;;;9.60;;
6209;SDS011;3138;52.550;13.148;2023-08-06T14:25:24;9.70;;;8.70;;
6209;SDS011;3138;52.550;13.148;2023-08-06T14:27:51;13.53;;;8.53;;
6209;SDS011;3138;52.550;13.148;2023-08-06T14:30:17;13.43;;;8.60;;
6209;SDS011;3138;52.550;13.148;2023-08-06T14:32:44;13.37;;;8.90;;
6209;SDS011;3138;52.550;13.148;2023-08-06T14:35:11;15.70;;;8.37;;
6209;SDS011;3138;52.550;13.148;2023-08-06T14:37:38;10.20;;;8.83;;
6209;SDS011;3138;52.550;13.148;2023-08-06T14:40:08;10.87;;;9.13;;
6209;SDS011;3138;52.550;13.148;2023-08-06T14:42:35;8.97;;;8.07;;
6209;SDS011;3138;52.550;13.148;2023-08-06T14:45:02;15.73;;;9.03;;
6209;SDS011;3138;52.550;13.148;2023-08-06T14:47:30;10.63;;;9.13;;
6209;SDS011;3138;52.550;13.148;2023-08-06T14:49:57;11.00;;;9.20;;
6209;SDS011;3138;52.550;13.148;2023-08-06T14:52:23;25.30;;;8.47;;
6209;SDS011;3138;52.550;13.148;2023-08-06T14:54:50;13.00;;;9.30;;